Archival Weather

Aeroparque Jorge Newbery

Buenos Aires, Argentina (SABE)

Report from: Thursday, September 21, 2023 5:00 PM -03
Current time: Saturday, March 2, 2024 7:10 AM -03

Current weather – Weather history – Daily summaries
Weather forecast

Present weatherMist
Temperature18.0°C (64.4°F)
Dew point17.0°C (62.6°F)
Winds 1 kts (0.5 m/s, 1.2 mph) Vrb
Winds variableWinds variable
Visibility1.6 mi. (2.5 km)
Clouds Ceiling: Overcast 1,700 ft. (518 m)
Altimeter29.77 in.Hg (1008 mB)
Relative humidity94 %
Density altitude796 ft. (243 m)
Remarks Corrected report
No significant changes expected in the next two hours
Flight conditions Instrument Meteorological Conditions
Raw dataCOR SABE 212000Z VRB01KT 2500 BR OVC017 18/17 Q1008 NOSIG RMK PP000
An error has occurred. This application may no longer respond until reloaded. Reload 🗙